createdAt,value
2019-02-18T00:04:17.477Z,98418.25
2019-02-18T00:09:19.049Z,98419.88
2019-02-18T00:14:20.617Z,98403.64
2019-02-18T00:19:22.269Z,98411.14
2019-02-18T00:24:23.873Z,98408.66
2019-02-18T00:29:25.457Z,98410.45
2019-02-18T00:34:27.151Z,98401.94
2019-02-18T00:39:28.869Z,98401.08
2019-02-18T00:44:30.434Z,98391.19
2019-02-18T00:49:31.997Z,98386.09
2019-02-18T00:54:33.543Z,98397.66
2019-02-18T00:59:35.214Z,98395.19
2019-02-18T01:04:36.972Z,98386.52
2019-02-18T01:09:39.800Z,98382.82
2019-02-18T01:14:41.363Z,98387.77
2019-02-18T01:19:42.921Z,98381.11
2019-02-18T01:24:46.626Z,98372.44
2019-02-18T01:29:50.081Z,98370.13
2019-02-18T01:34:54.637Z,98363.16
2019-02-18T01:39:58.183Z,98358.42
2019-02-18T01:45:00.346Z,98352.92
2019-02-18T01:50:03.506Z,98346.41
2019-02-18T01:55:07.169Z,98348.23
2019-02-18T02:00:14.907Z,98339.52
2019-02-18T02:05:17.088Z,98337.05
2019-02-18T02:10:18.647Z,98338.92
2019-02-18T02:15:26.305Z,98332.34
2019-02-18T02:20:28.059Z,98330.09
2019-02-18T02:25:29.626Z,98319.09
2019-02-18T02:30:31.321Z,98318.22
2019-02-18T02:35:32.943Z,98319.36
2019-02-18T02:40:34.499Z,98314.11
2019-02-18T02:45:36.061Z,98317.41
2019-02-18T02:50:37.845Z,98321.87
2019-02-18T02:55:40.508Z,98312.74
2019-02-18T03:00:42.077Z,98312.10
2019-02-18T03:05:43.767Z,98306.01
2019-02-18T03:10:45.341Z,98306.63
2019-02-18T03:15:46.909Z,98302.45
2019-02-18T03:20:48.660Z,98294.98
2019-02-18T03:25:50.221Z,98298.31
2019-02-18T03:31:00.134Z,98296.79
2019-02-18T03:36:01.736Z,98289.39
2019-02-18T03:41:03.802Z,98287.16
2019-02-18T03:46:06.454Z,98289.64
2019-02-18T03:51:08.212Z,98282.34
2019-02-18T03:56:09.779Z,98283.06
2019-02-18T04:01:11.619Z,98284.30
2019-02-18T04:06:13.237Z,98276.05
2019-02-18T04:11:14.809Z,98274.19
2019-02-18T04:16:16.469Z,98265.17
2019-02-18T04:21:18.036Z,98270.42
2019-02-18T04:26:19.615Z,98258.84
2019-02-18T04:31:21.255Z,98260.56
2019-02-18T04:36:22.849Z,98249.01
2019-02-18T04:41:24.653Z,98255.03
2019-02-18T04:46:26.212Z,98254.06
2019-02-18T04:51:27.771Z,98253.00
2019-02-18T04:56:29.345Z,98247.63
2019-02-18T05:01:30.920Z,98245.38
2019-02-18T05:06:32.542Z,98244.53
2019-02-18T05:11:34.238Z,98241.42
2019-02-18T05:16:35.796Z,98242.19
2019-02-18T05:21:37.437Z,98243.74
2019-02-18T05:26:39.022Z,98248.70
2019-02-18T05:31:40.617Z,98255.26
2019-02-18T05:36:42.326Z,98252.88
2019-02-18T05:41:44.047Z,98252.41
2019-02-18T05:46:45.602Z,98257.06
2019-02-18T05:51:47.492Z,98259.69
2019-02-18T05:56:49.271Z,98266.38
2019-02-18T06:01:50.867Z,98271.30
2019-02-18T06:06:52.548Z,98272.56
2019-02-18T06:11:54.134Z,98272.91
2019-02-18T06:16:55.700Z,98265.31
2019-02-18T06:21:57.263Z,98269.70
2019-02-18T06:26:58.925Z,98277.87
2019-02-18T06:32:00.540Z,98287.34
2019-02-18T06:37:02.146Z,98290.84
2019-02-18T06:42:03.718Z,98293.37
2019-02-18T06:47:06.390Z,98295.34
2019-02-18T06:52:07.955Z,98305.12
2019-02-18T06:57:14.104Z,98311.47
2019-02-18T07:02:17.560Z,98312.92
2019-02-18T07:07:21.128Z,98314.60
2019-02-18T07:12:24.632Z,98305.38
2019-02-18T07:17:26.184Z,98309.25
2019-02-18T07:22:27.758Z,98307.61
2019-02-18T07:27:29.357Z,98312.27
2019-02-18T07:32:31.038Z,98308.09
2019-02-18T07:37:32.606Z,98312.41
2019-02-18T07:42:34.207Z,98304.75
2019-02-18T07:47:35.865Z,98302.84
2019-02-18T07:52:37.530Z,98300.25
2019-02-18T07:57:39.084Z,98304.52
2019-02-18T08:02:40.807Z,98304.39
2019-02-18T08:07:42.479Z,98300.19
2019-02-18T08:12:44.451Z,98303.16
2019-02-18T08:17:46.012Z,98302.76
2019-02-18T08:22:47.600Z,98303.53
2019-02-18T08:27:49.172Z,98302.03
2019-02-18T08:32:50.772Z,98295.93
2019-02-18T08:37:52.349Z,98304.11
2019-02-18T08:42:53.920Z,98305.77
2019-02-18T08:47:55.511Z,98304.54
2019-02-18T08:52:57.076Z,98297.55
2019-02-18T08:57:58.637Z,98302.80
2019-02-18T09:03:00.283Z,98305.00
2019-02-18T09:08:02.007Z,98301.00
2019-02-18T09:13:03.578Z,98306.09
2019-02-18T09:18:05.246Z,98311.38
2019-02-18T09:23:08.739Z,98305.07
2019-02-18T09:28:10.414Z,98304.24
2019-02-18T09:33:11.998Z,98305.02
2019-02-18T09:38:23.756Z,98308.45
2019-02-18T09:43:17.686Z,98315.38
2019-02-18T09:48:19.549Z,98319.70
2019-02-18T09:53:21.118Z,98318.16
2019-02-18T09:58:23.792Z,98316.83
2019-02-18T10:03:32.030Z,98317.84
2019-02-18T10:08:29.070Z,98322.66
2019-02-18T10:13:30.790Z,98317.77
2019-02-18T10:18:32.356Z,98315.42
2019-02-18T10:23:33.919Z,98308.72
2019-02-18T10:28:35.486Z,98298.66
2019-02-18T10:33:37.064Z,98292.13
2019-02-18T10:38:40.211Z,98291.63
2019-02-18T10:49:19.389Z,98294.70
2019-02-18T10:54:12.502Z,98284.98
2019-02-18T10:59:14.081Z,98274.58
2019-02-18T11:04:15.800Z,98278.59
2019-02-18T11:09:17.493Z,98266.75
2019-02-18T11:14:19.113Z,98261.41
2019-02-18T11:19:20.678Z,98259.52
2019-02-18T11:24:23.350Z,98256.89
2019-02-18T11:29:25.342Z,98255.61
2019-02-18T11:34:26.909Z,98241.60
2019-02-18T11:39:28.476Z,98244.79
2019-02-18T11:44:30.098Z,98249.16
2019-02-18T11:49:31.665Z,98235.94
2019-02-18T11:54:33.529Z,98226.30
2019-02-18T11:59:35.122Z,98227.45
2019-02-18T12:04:36.723Z,98223.09
2019-02-18T12:09:38.416Z,98211.41
2019-02-18T12:14:40.805Z,98210.07
2019-02-18T12:19:42.409Z,98204.61
2019-02-18T12:24:44.094Z,98199.52
2019-02-18T12:29:45.700Z,98189.89
2019-02-18T12:34:47.560Z,98196.09
2019-02-18T12:39:49.151Z,98188.75
2019-02-18T12:44:50.900Z,98177.28
2019-02-18T12:49:52.493Z,98171.94
2019-02-18T12:54:54.101Z,98165.62
2019-02-18T12:59:56.201Z,98155.96
2019-02-18T13:04:57.976Z,98161.17
2019-02-18T13:09:59.838Z,98155.89
2019-02-18T13:15:01.450Z,98155.03
2019-02-18T13:20:06.634Z,98148.28
2019-02-18T13:25:09.506Z,98147.30
2019-02-18T13:30:15.075Z,98143.60
2019-02-18T13:35:16.803Z,98145.95
2019-02-18T13:40:18.475Z,98138.47
2019-02-18T13:45:20.656Z,98138.52
2019-02-18T13:50:22.526Z,98138.30
2019-02-18T13:55:24.571Z,98133.56
2019-02-18T14:00:26.598Z,98133.75
2019-02-18T14:05:28.304Z,98133.55
2019-02-18T14:10:30.142Z,98136.29
2019-02-18T14:15:32.003Z,98132.20
2019-02-18T14:20:33.654Z,98131.13
2019-02-18T14:25:35.216Z,98131.69
2019-02-18T14:30:37.039Z,98123.45
2019-02-18T14:35:38.690Z,98127.08
2019-02-18T14:40:40.572Z,98123.02
2019-02-18T14:45:42.345Z,98118.40
2019-02-18T14:50:44.424Z,98111.34
2019-02-18T14:55:46.196Z,98110.73
2019-02-18T15:00:47.944Z,98104.28
2019-02-18T15:05:49.762Z,98096.91
2019-02-18T15:10:51.513Z,98099.12
2019-02-18T15:15:53.081Z,98095.23
2019-02-18T15:20:54.749Z,98097.03
2019-02-18T15:25:56.513Z,98087.58
2019-02-18T15:30:58.541Z,98085.44
2019-02-18T15:36:00.415Z,98078.69
2019-02-18T15:41:02.127Z,98076.07
2019-02-18T15:46:04.084Z,98069.38
2019-02-18T15:51:05.968Z,98072.35
2019-02-18T15:56:08.157Z,98056.48
2019-02-18T16:01:09.847Z,98057.56
2019-02-18T16:06:12.781Z,98056.53
2019-02-18T16:11:14.570Z,98059.17
2019-02-18T16:16:16.220Z,98065.85
2019-02-18T16:21:17.782Z,98061.81
2019-02-18T16:26:19.356Z,98062.56
2019-02-18T16:31:21.127Z,98066.00
2019-02-18T16:36:22.807Z,98065.02
2019-02-18T16:41:24.787Z,98068.80
2019-02-18T16:46:26.850Z,98070.63
2019-02-18T16:51:29.221Z,98070.78
2019-02-18T16:56:30.786Z,98063.34
2019-02-18T17:01:32.752Z,98065.45
2019-02-18T17:06:34.318Z,98062.64
2019-02-18T17:11:35.955Z,98067.27
2019-02-18T17:16:37.609Z,98069.20
2019-02-18T17:21:39.278Z,98057.55
2019-02-18T17:26:40.969Z,98059.20
2019-02-18T17:31:42.675Z,98057.48
2019-02-18T17:36:44.352Z,98053.39
2019-02-18T17:41:46.478Z,98049.22
2019-02-18T17:46:48.164Z,98048.50
2019-02-18T17:51:50.683Z,98051.19
2019-02-18T17:56:52.265Z,98050.55
2019-02-18T18:01:53.877Z,98045.98
2019-02-18T18:06:55.556Z,98042.77
2019-02-18T18:11:57.231Z,98036.16
2019-02-18T18:16:58.790Z,98029.17
2019-02-18T18:22:00.957Z,98031.61
2019-02-18T18:27:02.665Z,98020.13
2019-02-18T18:32:04.370Z,98023.55
2019-02-18T18:37:06.009Z,98017.34
2019-02-18T18:42:07.693Z,98022.53
2019-02-18T18:47:09.257Z,98010.55
2019-02-18T18:52:10.823Z,98005.73
2019-02-18T18:57:12.390Z,98003.79
2019-02-18T19:02:13.986Z,98001.14
2019-02-18T19:07:15.729Z,98000.43
2019-02-18T19:12:17.694Z,98000.52
2019-02-18T19:17:19.256Z,97999.52
2019-02-18T19:22:20.936Z,97994.66
2019-02-18T19:27:22.949Z,97997.61
2019-02-18T19:32:24.573Z,97993.09
2019-02-18T19:37:26.154Z,97993.74
2019-02-18T19:42:27.746Z,97990.80
2019-02-18T19:47:29.311Z,97989.75
2019-02-18T19:52:31.378Z,97984.20
2019-02-18T19:57:33.048Z,97980.42
2019-02-18T20:02:34.645Z,97970.88
2019-02-18T20:07:36.328Z,97968.54
2019-02-18T20:12:38.185Z,97975.00
2019-02-18T20:17:39.867Z,97974.52
2019-02-18T20:22:41.632Z,97969.95
2019-02-18T20:27:43.222Z,97968.92
2019-02-18T20:32:44.771Z,97968.58
2019-02-18T20:37:47.444Z,97969.40
2019-02-18T20:42:49.041Z,97967.66
2019-02-18T20:47:51.955Z,97967.56
2019-02-18T20:52:54.887Z,97961.02
2019-02-18T20:57:56.558Z,97959.31
2019-02-18T21:02:58.690Z,97956.57
2019-02-18T21:08:02.885Z,97953.02
2019-02-18T21:13:06.734Z,97947.08
2019-02-18T21:18:08.291Z,97951.20
2019-02-18T21:23:11.085Z,97950.26
2019-02-18T21:28:14.585Z,97937.08
2019-02-18T21:33:16.159Z,97932.95
2019-02-18T21:38:19.669Z,97932.02
2019-02-18T21:43:21.234Z,97929.98
2019-02-18T21:48:24.257Z,97934.28
2019-02-18T21:53:25.833Z,97930.64
2019-02-18T21:58:28.564Z,97927.84
2019-02-18T22:03:33.321Z,97926.73
2019-02-18T22:08:34.917Z,97920.56
2019-02-18T22:13:36.896Z,97918.80
2019-02-18T22:18:38.457Z,97925.42
2019-02-18T22:23:40.087Z,97925.77
2019-02-18T22:28:42.780Z,97920.98
2019-02-18T22:33:44.598Z,97921.36
2019-02-18T22:38:46.414Z,97923.89
2019-02-18T22:43:48.621Z,97911.39
2019-02-18T22:48:50.690Z,97909.49
2019-02-18T22:53:52.669Z,97916.49
2019-02-18T22:58:54.313Z,97903.87
2019-02-18T23:03:56.510Z,97907.82
2019-02-18T23:08:58.508Z,97901.05
2019-02-18T23:14:00.385Z,97901.72
2019-02-18T23:19:02.367Z,97903.16
2019-02-18T23:24:03.931Z,97893.75
2019-02-18T23:29:05.605Z,97883.59
2019-02-18T23:34:07.211Z,97874.76
2019-02-18T23:39:09.183Z,97878.71
2019-02-18T23:44:10.952Z,97865.16
2019-02-18T23:49:12.504Z,97865.16
2019-02-18T23:54:14.068Z,97870.53
2019-02-18T23:59:15.637Z,97862.33
